Lindoeste, Brazil
Current Conditions -  °F | °C
As of 9:00 AM on Monday 22 Dec 2014 (Local Time) from SBCA Reporting Station
Moderate Fog Moderate Fog  
Wind Chill: 66°   Ceiling: 100
Heat Index: 66°   Visibility: 0.5mi
Dew Point: 66°   Wind: 0mph
Humidity: 100%   Direction: NA
Pressure: 29.88"   Gusts: NA
Location:  25.26°S, 53.58°W
Report Text: SBCA 221100Z 00000KT 0800 FG OVC001 19/19 Q1012
Loading
Personal Weather Stations






























Interactive Weather Map New forecast layout! Learn more

10-Day Weather Forecast

Advertisements
Track Severe Weather on mobile